Time;durP1;ratioP1;P1;durP2;ratioP2;P2;SDS_P1;SDS_P2;PMS_P1;PMS_P2;Temp;Humidity;BMP_temperature;BMP_pressure;BME280_temperature;BME280_humidity;BME280_pressure;Samples;Min_cycle;Max_cycle;Signal;HPM_P1;HPM_P2
2021/07/23 04:16:50;;;;;;;22.63;13.07;;;;;;;14.63;93.05;98861.34;5261059;23;20060;-75
2021/07/23 04:19:16;;;;;;;22.58;13.90;;;;;;;14.59;93.34;98866.72;4917689;29;20040;-78
2021/07/23 04:21:42;;;;;;;18.52;13.38;;;;;;;14.61;93.53;98863.16;4917543;29;20035;-74
2021/07/23 04:24:07;;;;;;;17.42;13.20;;;;;;;14.59;93.87;98871.94;4917711;29;20032;-75
2021/07/23 04:26:33;;;;;;;17.60;13.85;;;;;;;14.68;93.59;98866.41;4917368;29;20024;-74
2021/07/23 04:28:59;;;;;;;19.17;13.18;;;;;;;14.68;93.35;98862.97;4917845;29;20433;-74
2021/07/23 04:31:24;;;;;;;20.73;13.27;;;;;;;14.84;92.56;98870.25;4917395;29;20024;-74
2021/07/23 04:33:50;;;;;;;19.52;13.20;;;;;;;14.81;92.94;98875.53;4917251;29;20024;-75
2021/07/23 04:36:15;;;;;;;20.75;14.32;;;;;;;14.94;92.25;98875.13;4917152;29;20056;-74
2021/07/23 04:38:40;;;;;;;18.88;13.23;;;;;;;15.01;91.73;98874.88;4917356;29;20103;-75
2021/07/23 04:41:06;;;;;;;19.80;13.57;;;;;;;14.98;91.50;98877.56;4917240;29;20064;-75
2021/07/23 04:43:39;;;;;;;18.05;12.90;;;;;;;14.94;92.15;98869.91;4917086;29;20473;-75
2021/07/23 04:46:05;;;;;;;22.48;13.32;;;;;;;14.94;92.19;98881.22;4916957;29;20442;-75
2021/07/23 04:48:31;;;;;;;21.33;13.10;;;;;;;15.10;91.44;98877.16;4916929;29;20047;-75
2021/07/23 04:51:00;;;;;;;16.42;13.10;;;;;;;15.38;90.13;98870.97;4917054;29;20130;-75
2021/07/23 04:53:26;;;;;;;19.83;12.30;;;;;;;15.26;90.10;98876.63;4917045;29;20382;-75
2021/07/23 04:55:53;;;;;;;22.23;13.10;;;;;;;15.19;90.64;98880.38;4917404;29;20105;-75
2021/07/23 04:58:19;;;;;;;17.77;12.45;;;;;;;15.39;89.80;98877.91;4916689;29;20036;-75
2021/07/23 05:00:45;;;;;;;17.58;13.35;;;;;;;15.42;89.73;98880.38;4916923;29;20035;-75
2021/07/23 05:03:10;;;;;;;19.63;13.98;;;;;;;15.74;88.27;98878.38;4916755;29;20048;-75
2021/07/23 05:05:39;;;;;;;23.30;12.77;;;;;;;15.81;87.62;98879.84;4916625;29;20489;-75
2021/07/23 05:08:05;;;;;;;17.02;12.13;;;;;;;15.79;87.51;98881.69;4916613;29;20028;-75
2021/07/23 05:10:30;;;;;;;24.77;13.15;;;;;;;15.95;86.76;98877.56;4916452;29;20549;-75
2021/07/23 05:12:56;;;;;;;19.35;13.07;;;;;;;16.02;86.04;98883.44;4916688;29;20016;-75
2021/07/23 05:15:21;;;;;;;21.63;13.00;;;;;;;15.80;87.16;98883.38;4916349;29;20110;-75
2021/07/23 05:17:46;;;;;;;20.90;12.43;;;;;;;15.86;87.42;98883.16;4916494;29;20426;-76
2021/07/23 05:20:12;;;;;;;17.20;12.60;;;;;;;15.99;86.64;98884.38;4916435;29;20028;-76
2021/07/23 05:22:38;;;;;;;19.23;12.48;;;;;;;15.89;86.63;98883.88;4916459;29;20031;-75
2021/07/23 05:25:07;;;;;;;17.55;13.27;;;;;;;16.24;85.58;98883.44;4916275;29;20035;-76
2021/07/23 05:27:34;;;;;;;21.88;12.77;;;;;;;16.05;85.95;98889.41;4916300;29;20394;-75
2021/07/23 05:29:59;;;;;;;19.58;12.68;;;;;;;16.15;85.78;98884.66;4916385;29;20036;-75
2021/07/23 05:32:25;;;;;;;22.63;13.80;;;;;;;15.96;86.46;98889.75;4916569;29;20036;-75
2021/07/23 05:34:50;;;;;;;20.25;13.82;;;;;;;15.94;87.32;98891.56;4916315;29;20028;-75
2021/07/23 05:37:15;;;;;;;21.17;13.10;;;;;;;15.96;87.34;98884.53;4914908;29;20028;-75
2021/07/23 05:39:41;;;;;;;18.35;13.77;;;;;;;16.26;86.67;98882.47;4901510;29;20056;-75
2021/07/23 05:42:08;;;;;;;16.20;12.95;;;;;;;16.51;85.21;98882.34;4929263;29;20426;-74
2021/07/23 05:44:33;;;;;;;21.27;12.40;;;;;;;16.49;85.04;98884.19;4921901;29;20054;-74
2021/07/23 05:46:59;;;;;;;18.17;12.63;;;;;;;16.51;84.75;98890.19;4911670;29;20056;-75
2021/07/23 05:49:26;;;;;;;15.40;11.43;;;;;;;16.63;85.28;98879.25;4897143;29;20036;-75
2021/07/23 05:51:51;;;;;;;20.60;12.57;;;;;;;16.75;84.58;98890.16;4896430;29;20084;-74
2021/07/23 05:54:17;;;;;;;17.02;12.45;;;;;;;16.83;84.28;98882.84;4896565;29;20380;-75
2021/07/23 05:56:42;;;;;;;17.40;11.88;;;;;;;16.91;83.62;98875.50;4908138;29;20023;-75
2021/07/23 05:59:07;;;;;;;18.35;12.50;;;;;;;16.88;83.34;98875.66;4910673;29;20032;-74
2021/07/23 06:01:33;;;;;;;19.40;13.88;;;;;;;16.82;84.70;98881.97;4896883;29;20028;-74
2021/07/23 06:03:59;;;;;;;17.08;13.63;;;;;;;16.89;84.08;98879.97;4895925;29;20035;-75
2021/07/23 06:06:24;;;;;;;17.63;13.15;;;;;;;17.01;83.19;98889.03;4896605;29;20028;-75
2021/07/23 06:08:50;;;;;;;16.95;12.93;;;;;;;17.06;82.55;98885.31;4896860;29;20047;-74
2021/07/23 06:11:15;;;;;;;26.05;13.25;;;;;;;17.12;82.89;98879.84;4896825;29;20032;-75
2021/07/23 06:13:40;;;;;;;18.35;12.52;;;;;;;17.60;81.50;98883.84;4896843;29;20063;-74
2021/07/23 06:16:07;;;;;;;18.10;12.35;;;;;;;18.03;79.30;98879.25;4895554;29;20056;-75
2021/07/23 06:18:33;;;;;;;17.83;12.57;;;;;;;17.82;79.50;98885.50;4896975;29;20036;-75
2021/07/23 06:20:58;;;;;;;19.33;12.65;;;;;;;17.88;80.56;98879.97;4897639;29;20025;-75
2021/07/23 06:23:24;;;;;;;16.15;12.60;;;;;;;18.04;80.18;98881.00;4900627;29;20024;-75
2021/07/23 06:25:49;;;;;;;19.58;13.07;;;;;;;18.30;78.45;98876.28;4900224;29;20032;-75
2021/07/23 06:28:14;;;;;;;22.30;12.20;;;;;;;18.64;76.63;98873.72;4899960;29;20143;-75
2021/07/23 06:30:40;;;;;;;21.05;13.52;;;;;;;18.74;76.22;98869.72;4900689;29;20107;-74
2021/07/23 06:33:06;;;;;;;16.63;12.10;;;;;;;19.02;74.76;98876.22;4909808;29;20016;-75
2021/07/23 06:35:32;;;;;;;19.17;12.48;;;;;;;19.15;73.59;98872.06;4923815;29;20031;-75
2021/07/23 06:37:58;;;;;;;18.45;12.18;;;;;;;19.41;72.86;98873.31;4917628;29;20016;-76
2021/07/23 06:40:24;;;;;;;16.95;13.45;;;;;;;19.46;72.22;98870.44;4918841;29;20393;-76
2021/07/23 06:42:49;;;;;;;18.60;12.88;;;;;;;19.79;70.76;98872.25;4919132;29;20103;-75
2021/07/23 06:45:15;;;;;;;23.58;13.40;;;;;;;19.90;70.39;98872.50;4919088;29;20438;-76
2021/07/23 06:47:40;;;;;;;18.73;12.80;;;;;;;20.09;68.62;98867.94;4902812;29;20490;-76
2021/07/23 06:50:06;;;;;;;20.98;11.80;;;;;;;20.24;68.47;98872.34;4899318;29;20044;-76
2021/07/23 06:52:31;;;;;;;19.75;12.23;;;;;;;20.66;66.98;98865.63;4900214;29;20107;-76
2021/07/23 06:54:56;;;;;;;17.48;12.43;;;;;;;20.78;66.73;98866.66;4899997;29;20056;-76
2021/07/23 06:57:22;;;;;;;17.10;12.07;;;;;;;21.75;61.77;98859.94;4899885;29;20028;-76
2021/07/23 06:59:49;;;;;;;19.23;12.60;;;;;;;23.03;56.82;98853.44;4899874;29;20047;-76
2021/07/23 07:02:14;;;;;;;12.98;10.95;;;;;;;23.68;55.98;98854.28;4899219;29;20048;-76
2021/07/23 07:04:42;;;;;;;17.80;11.88;;;;;;;25.71;49.13;98857.66;4900024;29;20059;-76
2021/07/23 07:07:07;;;;;;;20.05;11.68;;;;;;;26.51;46.87;98851.31;4899681;29;20025;-76
2021/07/23 07:09:33;;;;;;;15.52;11.20;;;;;;;26.77;46.69;98855.28;4899883;29;20036;-76
2021/07/23 07:11:59;;;;;;;17.02;11.27;;;;;;;28.20;42.72;98843.84;4918105;29;20131;-76
2021/07/23 07:14:25;;;;;;;14.80;10.68;;;;;;;28.20;43.64;98854.50;4911595;29;20024;-76
2021/07/23 07:16:52;;;;;;;14.88;10.85;;;;;;;28.65;41.43;98854.03;4899284;29;20123;-76
2021/07/23 07:19:18;;;;;;;15.38;11.02;;;;;;;29.01;41.40;98848.97;4897041;29;20052;-76
2021/07/23 07:21:48;;;;;;;14.20;10.68;;;;;;;29.08;40.66;98850.94;4899563;29;20028;-76
2021/07/23 07:24:15;;;;;;;17.80;10.20;;;;;;;30.32;38.38;98849.78;4898796;29;20037;-76
2021/07/23 07:26:40;;;;;;;18.48;12.85;;;;;;;30.42;38.58;98853.22;4899296;29;20035;-76
2021/07/23 07:29:06;;;;;;;24.73;10.88;;;;;;;29.94;38.73;98848.13;4899467;29;20029;-76
2021/07/23 07:31:32;;;;;;;13.82;9.55;;;;;;;27.84;43.52;98848.78;4899398;29;20032;-77
2021/07/23 07:33:57;;;;;;;13.63;10.48;;;;;;;29.72;39.82;98846.69;4916499;29;20021;-76
2021/07/23 07:36:22;;;;;;;19.73;11.45;;;;;;;30.40;37.30;98841.81;4898303;29;20398;-76
2021/07/23 07:38:48;;;;;;;16.95;10.85;;;;;;;30.46;38.33;98843.03;4899343;29;20037;-76
2021/07/23 07:41:17;;;;;;;13.43;10.07;;;;;;;29.98;38.97;98848.66;4898050;29;20035;-76
2021/07/23 07:43:42;;;;;;;13.45;11.00;;;;;;;31.63;35.51;98834.75;4899159;29;20058;-76
2021/07/23 07:46:08;;;;;;;16.25;9.70;;;;;;;31.21;35.76;98840.84;4898930;29;20052;-76
2021/07/23 07:48:33;;;;;;;13.02;10.10;;;;;;;32.26;34.23;98834.34;4898416;29;20155;-76
2021/07/23 07:50:58;;;;;;;21.85;11.52;;;;;;;31.63;34.60;98845.47;4899192;29;20146;-76
2021/07/23 07:53:23;;;;;;;14.10;10.13;;;;;;;31.47;34.58;98844.38;4899007;29;20032;-76
2021/07/23 07:55:49;;;;;;;14.60;9.10;;;;;;;31.34;35.71;98843.97;4898841;29;20029;-76
2021/07/23 07:58:14;;;;;;;15.43;9.75;;;;;;;31.33;36.01;98831.59;4898342;29;20297;-76
2021/07/23 08:00:40;;;;;;;14.90;9.52;;;;;;;30.14;38.45;98843.56;4898635;29;20020;-76
2021/07/23 08:03:05;;;;;;;14.13;10.55;;;;;;;28.11;42.58;98834.84;4898876;29;20029;-76
2021/07/23 08:05:30;;;;;;;19.65;11.45;;;;;;;27.97;43.38;98832.59;4898779;29;20025;-76
2021/07/23 08:07:58;;;;;;;12.23;9.07;;;;;;;30.23;39.20;98826.59;4919690;29;20035;-76
2021/07/23 08:10:26;;;;;;;13.13;9.20;;;;;;;33.09;33.81;98825.34;4898056;29;20092;-76
2021/07/23 08:12:52;;;;;;;13.50;10.57;;;;;;;32.90;33.38;98821.19;4898749;29;20271;-76
2021/07/23 08:15:18;;;;;;;12.68;9.60;;;;;;;32.43;34.23;98819.94;4898446;29;20024;-76
2021/07/23 08:17:43;;;;;;;12.63;9.68;;;;;;;32.59;33.80;98818.28;4910903;29;20396;-76
2021/07/23 08:20:10;;;;;;;11.40;9.40;;;;;;;32.39;34.75;98818.59;4897411;29;20025;-75
2021/07/23 08:22:36;;;;;;;17.23;10.43;;;;;;;33.86;32.44;98817.59;4897658;29;20068;-75
2021/07/23 08:25:01;;;;;;;11.73;9.57;;;;;;;34.13;31.53;98808.22;4898425;29;20068;-75
2021/07/23 08:27:28;;;;;;;13.32;10.00;;;;;;;31.83;35.42;98812.09;4898318;29;20385;-75
2021/07/23 08:29:53;;;;;;;13.82;9.50;;;;;;;33.42;32.88;98805.50;4898406;29;20036;-76
2021/07/23 08:32:19;;;;;;;13.18;9.70;;;;;;;34.16;31.35;98807.88;4898245;29;20023;-76
2021/07/23 08:34:44;;;;;;;17.15;9.27;;;;;;;34.22;32.35;98802.59;4914752;29;20036;-75
2021/07/23 08:37:10;;;;;;;13.77;8.32;;;;;;;35.52;30.28;98787.19;4898111;29;20032;-75
2021/07/23 08:39:35;;;;;;;12.77;8.32;;;;;;;36.09;29.41;98795.59;4898287;29;20035;-76
2021/07/23 08:42:29;;;;;;;12.60;9.05;;;;;;;32.98;34.51;98797.03;4917168;29;20031;-75
2021/07/23 08:44:57;;;;;;;14.80;8.93;;;;;;;35.62;29.88;98788.75;4915797;29;20032;-76
2021/07/23 08:47:23;;;;;;;14.45;9.85;;;;;;;33.18;34.15;98792.13;4916751;29;20367;-76
2021/07/23 08:49:49;;;;;;;13.70;8.80;;;;;;;35.40;29.84;98785.13;4915361;29;20044;-75
2021/07/23 08:52:15;;;;;;;15.95;9.25;;;;;;;34.35;31.15;98790.44;4898045;29;20029;-76
2021/07/23 08:54:40;;;;;;;13.73;8.90;;;;;;;34.44;32.18;98790.19;4907614;29;20076;-76
2021/07/23 08:57:09;;;;;;;15.05;9.60;;;;;;;32.02;35.46;98797.56;4896907;29;20024;-76
2021/07/23 08:59:35;;;;;;;16.20;10.45;;;;;;;31.78;35.80;98798.31;4897831;29;20052;-75
2021/07/23 09:02:05;;;;;;;16.15;9.32;;;;;;;34.72;32.31;98787.81;4897703;29;20062;-75
2021/07/23 09:04:36;;;;;;;13.43;7.72;;;;;;;35.85;30.22;98786.78;4897733;29;20020;-75
2021/07/23 09:07:27;;;;;;;15.32;8.55;;;;;;;35.38;30.75;98792.56;4897313;29;20036;-76
2021/07/23 09:10:03;;;;;;;14.50;8.38;;;;;;;37.29;27.50;98782.13;4897297;29;20028;-76
2021/07/23 09:12:38;;;;;;;16.48;9.23;;;;;;;35.67;29.68;98780.94;4897587;29;20016;-76
2021/07/23 09:15:19;;;;;;;12.55;9.60;;;;;;;36.29;28.31;98775.03;4897696;29;20028;-76
2021/07/23 09:17:45;;;;;;;14.23;8.63;;;;;;;35.05;30.52;98775.91;4897424;29;20483;-76
2021/07/23 09:20:11;;;;;;;11.52;8.10;;;;;;;35.35;29.46;98777.59;4896691;29;20378;-76
2021/07/23 09:22:51;;;;;;;11.07;8.18;;;;;;;34.94;31.05;98775.31;4897348;29;20024;-76
2021/07/23 09:25:36;;;;;;;13.20;7.60;;;;;;;35.37;29.92;98775.56;4896226;29;20032;-76
2021/07/23 09:28:02;;;;;;;11.43;8.10;;;;;;;35.28;29.48;98771.28;4897248;29;20390;-75
2021/07/23 09:30:42;;;;;;;11.38;7.72;;;;;;;35.53;29.55;98769.97;4896807;29;20028;-75
2021/07/23 09:33:08;;;;;;;10.35;7.55;;;;;;;34.68;30.83;98766.81;4905735;29;20074;-75
2021/07/23 09:35:34;;;;;;;10.60;7.10;;;;;;;36.37;28.45;98766.81;4904077;29;20086;-75
2021/07/23 09:37:59;;;;;;;11.43;7.50;;;;;;;35.43;28.91;98757.78;4896845;29;20055;-76
2021/07/23 09:40:25;;;;;;;9.40;7.32;;;;;;;35.32;29.23;98772.56;4909154;29;20534;-75
2021/07/23 09:42:57;;;;;;;16.35;7.45;;;;;;;35.21;27.94;98764.97;4903616;29;20560;-76
2021/07/23 09:45:30;;;;;;;11.77;7.50;;;;;;;32.87;32.18;98773.16;4917854;29;20556;-75
2021/07/23 09:48:12;;;;;;;7.03;6.32;;;;;;;35.27;27.94;98759.66;4898113;29;20718;-75
2021/07/23 09:50:40;;;;;;;8.32;6.47;;;;;;;35.93;26.93;98748.91;4895510;29;20486;-76
2021/07/23 09:53:19;;;;;;;12.60;6.97;;;;;;;36.41;26.87;98751.91;4908382;29;20030;-75
2021/07/23 09:55:48;;;;;;;10.98;6.85;;;;;;;33.62;29.56;98768.31;4914252;29;20044;-76
2021/07/23 09:58:25;;;;;;;10.18;7.10;;;;;;;33.87;29.82;98758.25;4915858;29;20032;-75
2021/07/23 10:01:01;;;;;;;7.28;6.55;;;;;;;36.21;27.21;98750.84;4914594;29;20111;-75
2021/07/23 10:03:27;;;;;;;10.18;5.97;;;;;;;37.47;22.90;98741.88;4915785;29;20020;-76
2021/07/23 10:06:03;;;;;;;8.68;5.78;;;;;;;35.52;25.82;98756.69;4914783;29;20091;-76
2021/07/23 10:08:49;;;;;;;11.57;6.63;;;;;;;33.43;28.78;98756.13;4915666;29;20400;-76
2021/07/23 10:11:20;;;;;;;10.57;5.55;;;;;;;34.97;26.40;98748.03;4915721;29;20063;-75
2021/07/23 10:13:47;;;;;;;6.90;5.50;;;;;;;36.44;23.90;98734.50;4915765;29;20032;-76
2021/07/23 10:16:13;;;;;;;8.55;5.70;;;;;;;35.96;24.65;98732.34;4915030;29;20028;-76
2021/07/23 10:18:39;;;;;;;9.65;5.70;;;;;;;36.14;24.56;98733.78;4915128;29;20047;-75
2021/07/23 10:21:05;;;;;;;10.55;5.72;;;;;;;35.38;24.30;98723.31;4914626;29;20043;-76
2021/07/23 10:23:32;;;;;;;7.93;6.00;;;;;;;31.53;30.37;98724.22;4915343;29;20131;-76
2021/07/23 10:25:58;;;;;;;13.05;6.00;;;;;;;30.61;32.59;98725.66;4915351;29;20080;-75
2021/07/23 10:28:46;;;;;;;6.80;5.82;;;;;;;35.22;25.86;98710.06;4934497;23;20504;-75
2021/07/23 10:31:17;;;;;;;7.90;5.70;;;;;;;35.51;25.23;98701.94;4922026;29;20028;-75
2021/07/23 10:33:59;;;;;;;7.88;5.78;;;;;;;37.55;23.60;98695.75;4932630;29;20025;-75
2021/07/23 10:36:27;;;;;;;6.85;6.13;;;;;;;36.88;24.28;98692.88;4915486;29;20020;-75
2021/07/23 10:39:04;;;;;;;6.10;5.50;;;;;;;37.84;23.67;98691.06;4905665;29;20047;-75
2021/07/23 10:41:34;;;;;;;7.95;5.65;;;;;;;38.54;22.59;98692.41;4895973;29;20037;-75
2021/07/23 10:44:00;;;;;;;6.78;5.55;;;;;;;38.11;22.87;98693.84;4896560;29;20036;-75
2021/07/23 10:46:43;;;;;;;8.45;5.95;;;;;;;37.85;23.56;98690.03;4896281;29;20394;-75
2021/07/23 10:49:27;;;;;;;8.27;6.20;;;;;;;37.09;24.67;98690.13;4896615;29;20036;-75
2021/07/23 10:51:59;;;;;;;7.63;6.25;;;;;;;37.79;23.11;98691.66;4895523;29;20020;-75
2021/07/23 10:54:29;;;;;;;10.13;7.05;;;;;;;34.87;26.43;98682.81;4896481;29;20080;-75
2021/07/23 10:56:58;;;;;;;9.93;6.93;;;;;;;36.08;26.14;98683.31;4896392;29;20035;-75
2021/07/23 10:59:41;;;;;;;;;;;;;;;35.91;25.30;98675.41;4896706;29;20080;-75
2021/07/23 11:02:07;;;;;;;11.05;6.82;;;;;;;32.01;31.04;98674.41;4896045;29;20033;-75
2021/07/23 11:04:33;;;;;;;10.32;6.40;;;;;;;34.73;26.87;98664.81;4895846;29;20463;-75
2021/07/23 11:07:03;;;;;;;10.23;7.43;;;;;;;35.27;26.34;98669.91;4897073;29;20040;-75
2021/07/23 11:09:34;;;;;;;12.02;6.88;;;;;;;32.97;28.79;98667.28;4899900;29;20061;-75
2021/07/23 11:12:18;;;;;;;8.63;7.03;;;;;;;34.32;27.33;98657.09;4900100;29;20025;-75
2021/07/23 11:14:52;;;;;;;6.70;6.10;;;;;;;36.88;24.57;98655.88;4898870;29;20028;-75
2021/07/23 11:17:18;;;;;;;9.68;6.70;;;;;;;36.73;23.65;98652.47;4899745;29;20103;-75
2021/07/23 11:19:48;;;;;;;8.32;6.47;;;;;;;34.64;26.28;98647.06;4899541;29;20107;-75
2021/07/23 11:22:26;;;;;;;12.88;7.05;;;;;;;31.97;32.02;98645.25;4899585;29;20025;-75
2021/07/23 11:25:11;;;;;;;14.38;6.85;;;;;;;33.35;28.60;98651.34;4898300;29;20039;-75
2021/07/23 11:27:39;;;;;;;11.20;7.05;;;;;;;35.14;26.29;98645.47;4898962;29;20055;-76
2021/07/23 11:30:25;;;;;;;8.32;6.68;;;;;;;33.98;28.67;98639.56;4899474;29;20035;-75
2021/07/23 11:32:53;;;;;;;8.90;6.90;;;;;;;34.73;26.89;98640.56;4904875;29;20031;-75
2021/07/23 11:35:19;;;;;;;10.75;6.60;;;;;;;35.05;26.73;98635.84;4910570;29;20115;-75
2021/07/23 11:37:46;;;;;;;9.23;7.00;;;;;;;33.62;28.47;98633.94;4905740;29;20103;-76
2021/07/23 11:40:14;;;;;;;7.45;6.57;;;;;;;33.37;29.04;98630.53;4912291;29;20031;-75
2021/07/23 11:42:42;;;;;;;7.13;6.28;;;;;;;32.36;29.11;98625.81;4899239;29;20542;-75
2021/07/23 11:45:13;;;;;;;10.20;7.30;;;;;;;31.64;31.50;98619.41;4903993;29;20122;-75
2021/07/23 11:47:49;;;;;;;8.43;7.28;;;;;;;34.72;26.66;98609.28;4904751;29;20275;-76
2021/07/23 11:50:24;;;;;;;10.05;7.05;;;;;;;33.94;27.09;98606.00;4898522;29;20112;-75
2021/07/23 11:52:57;;;;;;;10.90;7.38;;;;;;;32.94;28.41;98608.59;4899109;29;20061;-75
2021/07/23 11:55:23;;;;;;;9.07;7.13;;;;;;;33.49;28.78;98606.78;4899235;29;20431;-75
2021/07/23 11:57:48;;;;;;;9.38;7.20;;;;;;;31.33;31.78;98595.06;4897584;29;20043;-75
2021/07/23 12:00:17;;;;;;;8.48;7.57;;;;;;;31.40;32.52;98596.94;4902721;29;20472;-75
2021/07/23 12:02:42;;;;;;;7.60;6.80;;;;;;;31.68;31.49;98594.78;4903664;29;20032;-75
2021/07/23 12:05:09;;;;;;;11.20;7.60;;;;;;;29.83;34.49;98589.16;4902895;29;20032;-75
2021/07/23 12:07:39;;;;;;;8.68;7.68;;;;;;;29.87;36.78;98580.69;4903250;29;20044;-74
2021/07/23 12:10:09;;;;;;;9.57;7.75;;;;;;;30.16;33.79;98574.25;4903588;29;20458;-74
2021/07/23 12:12:35;;;;;;;12.40;7.22;;;;;;;30.41;33.86;98576.09;4901851;29;20028;-75
2021/07/23 12:15:09;;;;;;;8.93;7.25;;;;;;;30.03;36.29;98573.81;4902508;29;20028;-74
2021/07/23 12:17:36;;;;;;;10.55;7.45;;;;;;;30.02;34.38;98572.13;4903459;29;20044;-74
2021/07/23 12:20:04;;;;;;;10.75;7.75;;;;;;;30.27;34.64;98566.00;4901996;29;21305;-74
2021/07/23 12:22:29;;;;;;;8.82;7.57;;;;;;;29.23;36.72;98565.72;4902042;29;20028;-74
2021/07/23 12:24:55;;;;;;;12.30;7.85;;;;;;;29.76;36.03;98556.91;4902800;29;20034;-75
2021/07/23 12:27:23;;;;;;;14.43;7.30;;;;;;;30.93;34.83;98561.81;4903033;29;20029;-75
2021/07/23 12:29:50;;;;;;;11.20;7.60;;;;;;;30.56;35.15;98564.78;4902069;29;21481;-75
2021/07/23 12:32:22;;;;;;;10.98;8.00;;;;;;;30.02;35.17;98559.59;4903224;29;20063;-75
2021/07/23 12:34:55;;;;;;;14.25;7.35;;;;;;;30.84;33.47;98552.91;4902172;29;20516;-75
2021/07/23 12:37:21;;;;;;;10.50;7.65;;;;;;;30.48;32.79;98556.75;4903022;29;20039;-75
2021/07/23 12:39:56;;;;;;;12.82;7.88;;;;;;;30.70;34.76;98559.72;4902760;29;20032;-75
2021/07/23 12:42:23;;;;;;;9.45;7.63;;;;;;;30.74;32.42;98551.38;4902831;29;20131;-75
2021/07/23 12:44:48;;;;;;;32.08;22.38;;;;;;;31.11;32.82;98542.97;4902696;29;20024;-74
2021/07/23 12:47:18;;;;;;;12.93;7.63;;;;;;;31.22;31.85;98545.31;4901645;29;20043;-75
2021/07/23 12:49:44;;;;;;;9.88;8.10;;;;;;;30.70;32.28;98545.44;4902765;29;20036;-75
2021/07/23 12:52:10;;;;;;;11.90;7.85;;;;;;;30.77;34.74;98541.19;4902808;29;20162;-73
2021/07/23 12:54:39;;;;;;;12.25;7.80;;;;;;;30.18;34.61;98537.53;4902585;29;20094;-74
2021/07/23 12:57:31;;;;;;;11.98;7.93;;;;;;;30.44;33.64;98535.66;4900239;29;21563;-75
2021/07/23 13:00:20;;;;;;;10.15;8.00;;;;;;;29.68;35.72;98535.47;4898200;29;20040;-74
2021/07/23 13:02:46;;;;;;;14.77;8.15;;;;;;;29.84;34.89;98527.59;4902458;29;20058;-74
2021/07/23 13:05:11;;;;;;;11.88;7.95;;;;;;;29.62;34.52;98528.06;4902296;29;21457;-75
2021/07/23 13:07:37;;;;;;;9.45;7.90;;;;;;;29.79;33.35;98524.53;4902069;29;20028;-74
2021/07/23 13:10:03;;;;;;;11.38;8.00;;;;;;;29.62;34.03;98520.06;4901280;29;20051;-74
2021/07/23 13:12:29;;;;;;;8.35;7.20;;;;;;;29.92;34.41;98519.59;4902790;29;20187;-74
2021/07/23 13:14:54;;;;;;;11.73;8.18;;;;;;;30.04;33.02;98520.19;4902100;29;20027;-74
2021/07/23 13:17:19;;;;;;;13.95;8.10;;;;;;;29.56;34.07;98512.69;4902264;29;20060;-74
2021/07/23 13:19:45;;;;;;;16.17;7.70;;;;;;;29.44;34.51;98510.19;4901792;29;20441;-75
2021/07/23 13:22:10;;;;;;;11.38;7.93;;;;;;;29.15;35.21;98512.25;4901404;29;20024;-75
2021/07/23 13:24:37;;;;;;;10.55;8.20;;;;;;;29.10;35.54;98510.03;4901938;29;20036;-74
2021/07/23 13:27:03;;;;;;;14.55;8.63;;;;;;;29.12;35.80;98496.56;4901920;29;20501;-75
2021/07/23 13:29:28;;;;;;;10.38;8.13;;;;;;;29.41;34.50;98507.00;4901701;29;20044;-74
2021/07/23 13:31:54;;;;;;;8.98;7.85;;;;;;;29.56;34.67;98502.00;4901338;29;20032;-75
2021/07/23 13:34:21;;;;;;;12.10;7.65;;;;;;;29.85;34.02;98497.19;4880162;29;20087;-74
2021/07/23 13:37:01;;;;;;;10.32;8.10;;;;;;;29.85;33.17;98501.72;4906228;29;20490;-74
2021/07/23 13:39:46;;;;;;;9.15;7.18;;;;;;;29.45;33.38;98495.88;4901223;29;20032;-75
2021/07/23 13:42:14;;;;;;;11.32;7.53;;;;;;;29.93;35.16;98491.91;4900688;29;20032;-74
2021/07/23 13:44:39;;;;;;;9.43;7.13;;;;;;;29.81;35.08;98482.47;4899795;29;20033;-74
2021/07/23 13:47:05;;;;;;;15.10;10.15;;;;;;;30.32;35.00;98478.13;4915506;29;20035;-75
2021/07/23 13:49:31;;;;;;;12.02;7.70;;;;;;;29.72;34.08;98485.25;4901608;29;20032;-75
2021/07/23 13:51:56;;;;;;;10.43;7.55;;;;;;;30.04;32.42;98477.44;4901499;29;21415;-74
2021/07/23 13:54:21;;;;;;;10.05;8.00;;;;;;;30.19;32.74;98472.38;4901220;29;20036;-75
2021/07/23 13:56:47;;;;;;;14.07;8.38;;;;;;;30.33;31.93;98477.13;4901008;29;20037;-74
2021/07/23 13:59:13;;;;;;;11.07;7.38;;;;;;;29.90;32.58;98462.84;4901478;29;20043;-75
2021/07/23 14:01:38;;;;;;;13.43;7.80;;;;;;;29.84;32.95;98463.47;4899173;29;20151;-74
2021/07/23 14:04:03;;;;;;;9.70;7.28;;;;;;;29.50;32.83;98462.53;4901479;29;20111;-75
2021/07/23 14:06:30;;;;;;;13.38;8.02;;;;;;;30.05;32.85;98467.59;4900463;29;20039;-75
2021/07/23 14:08:56;;;;;;;10.85;7.53;;;;;;;30.28;33.05;98465.25;4901333;29;20028;-75
2021/07/23 14:11:22;;;;;;;8.45;7.40;;;;;;;30.30;33.43;98458.72;4901398;29;20186;-74
2021/07/23 14:13:49;;;;;;;10.40;7.85;;;;;;;30.16;33.70;98464.66;4901174;29;20028;-74
2021/07/23 14:16:14;;;;;;;8.90;7.80;;;;;;;29.60;33.21;98456.13;4900277;29;20028;-75
2021/07/23 14:18:40;;;;;;;9.38;7.40;;;;;;;30.31;33.50;98454.19;4900264;29;20025;-75
2021/07/23 14:21:05;;;;;;;10.23;7.45;;;;;;;30.32;33.65;98448.72;4901063;29;20537;-74
2021/07/23 14:23:31;;;;;;;11.50;7.78;;;;;;;29.68;33.47;98447.31;4901221;29;20497;-75
2021/07/23 14:25:58;;;;;;;9.02;7.38;;;;;;;29.85;34.24;98451.78;4899493;29;20029;-75
2021/07/23 14:28:23;;;;;;;8.68;7.50;;;;;;;30.48;33.55;98445.25;4901043;29;20169;-75
2021/07/23 14:30:49;;;;;;;14.35;7.70;;;;;;;30.60;32.74;98437.75;4899966;29;20040;-75
2021/07/23 14:33:14;;;;;;;16.15;11.65;;;;;;;30.58;32.18;98445.94;4900517;29;20489;-75
2021/07/23 14:35:39;;;;;;;11.52;7.85;;;;;;;30.58;31.84;98442.44;4900601;29;20040;-75
2021/07/23 14:38:05;;;;;;;13.90;7.65;;;;;;;30.49;32.44;98440.75;4901218;29;20047;-75
2021/07/23 14:40:31;;;;;;;9.65;6.85;;;;;;;30.51;32.73;98430.72;4901341;29;20020;-74
2021/07/23 14:42:56;;;;;;;10.27;7.55;;;;;;;30.43;31.98;98432.38;4903464;29;20033;-75
2021/07/23 14:45:22;;;;;;;9.93;7.40;;;;;;;30.40;32.66;98438.03;4904925;29;20451;-75
2021/07/23 14:47:47;;;;;;;9.20;7.35;;;;;;;30.36;31.57;98442.03;4904589;29;20036;-75
2021/07/23 14:50:13;;;;;;;9.05;7.65;;;;;;;30.49;31.34;98440.75;4904522;29;20103;-75
2021/07/23 14:52:39;;;;;;;14.32;8.55;;;;;;;30.21;31.03;98440.97;4914231;29;20030;-75
2021/07/23 14:55:05;;;;;;;7.93;7.13;;;;;;;30.12;32.24;98439.22;4904672;29;20029;-75
2021/07/23 14:57:31;;;;;;;10.23;7.15;;;;;;;29.55;32.37;98436.22;4904564;29;20456;-74
2021/07/23 14:59:58;;;;;;;9.95;7.45;;;;;;;30.18;31.98;98433.28;4904565;29;20123;-75
2021/07/23 15:02:27;;;;;;;16.73;8.15;;;;;;;30.30;31.41;98425.81;4904460;29;20394;-75
2021/07/23 15:04:52;;;;;;;11.07;7.65;;;;;;;30.32;31.71;98430.00;4904380;29;20041;-75
2021/07/23 15:07:17;;;;;;;8.63;7.57;;;;;;;29.73;32.72;98433.50;4903955;29;20035;-75
2021/07/23 15:09:48;;;;;;;8.25;7.35;;;;;;;30.31;32.59;98424.78;4904244;29;20032;-75
2021/07/23 15:12:13;;;;;;;11.63;7.75;;;;;;;30.75;31.41;98430.78;4904478;29;20115;-75
2021/07/23 15:14:39;;;;;;;9.15;7.03;;;;;;;30.83;30.94;98425.47;4904163;29;20510;-75
2021/07/23 15:17:05;;;;;;;10.95;7.97;;;;;;;30.61;31.18;98423.41;4904015;29;20024;-75
2021/07/23 15:19:30;;;;;;;9.85;7.65;;;;;;;30.53;32.14;98426.06;4904132;29;20038;-75
2021/07/23 15:21:58;;;;;;;15.68;8.00;;;;;;;30.44;32.86;98418.00;4904099;29;20032;-74
2021/07/23 15:24:24;;;;;;;10.23;7.70;;;;;;;30.08;32.98;98416.50;4903875;29;20508;-75
2021/07/23 15:26:49;;;;;;;10.25;7.25;;;;;;;30.41;31.65;98417.47;4903951;29;20374;-74
2021/07/23 15:29:15;;;;;;;10.80;7.25;;;;;;;30.64;31.28;98409.69;4903987;29;20088;-75
2021/07/23 15:31:40;;;;;;;9.50;7.35;;;;;;;30.49;31.05;98414.00;4903692;29;20035;-75
2021/07/23 15:34:05;;;;;;;10.43;7.45;;;;;;;30.05;33.10;98398.94;4903888;29;20066;-75
2021/07/23 15:36:31;;;;;;;13.00;7.78;;;;;;;29.60;33.85;98408.06;4903677;29;20056;-75
2021/07/23 15:38:56;;;;;;;10.65;7.03;;;;;;;29.06;34.56;98406.44;4904064;29;20040;-75
2021/07/23 15:41:21;;;;;;;11.88;8.27;;;;;;;29.23;33.73;98404.75;4903799;29;20715;-75
2021/07/23 15:43:47;;;;;;;9.80;7.43;;;;;;;29.68;32.66;98399.25;4903922;29;20739;-75